sensor_id;sensor_type;location;lat;lon;timestamp;noise_LAeq;noise_LA_min;noise_LA_max;noise_LA01;noise_LA95
67900;Laerm;54700;51.796;10.956;2022-08-19T00:01:22;33.62;29.29;45.90;;
67900;Laerm;54700;51.796;10.956;2022-08-19T00:03:48;34.14;29.51;45.56;;
67900;Laerm;54700;51.796;10.956;2022-08-19T00:06:16;35.06;28.86;43.43;;
67900;Laerm;54700;51.796;10.956;2022-08-19T00:08:44;33.50;28.28;44.55;;
67900;Laerm;54700;51.796;10.956;2022-08-19T00:11:11;47.51;29.33;63.21;;
67900;Laerm;54700;51.796;10.956;2022-08-19T00:13:39;48.31;29.00;64.67;;
67900;Laerm;54700;51.796;10.956;2022-08-19T00:16:06;31.97;28.23;38.59;;
67900;Laerm;54700;51.796;10.956;2022-08-19T00:18:32;33.69;29.08;40.03;;
67900;Laerm;54700;51.796;10.956;2022-08-19T00:20:59;33.96;28.55;44.48;;
67900;Laerm;54700;51.796;10.956;2022-08-19T00:23:26;35.80;30.27;46.72;;
67900;Laerm;54700;51.796;10.956;2022-08-19T00:25:55;36.51;29.98;48.17;;
67900;Laerm;54700;51.796;10.956;2022-08-19T00:28:21;34.14;28.86;49.71;;
67900;Laerm;54700;51.796;10.956;2022-08-19T00:30:48;33.79;29.18;54.30;;
67900;Laerm;54700;51.796;10.956;2022-08-19T00:33:17;34.30;30.49;42.58;;
67900;Laerm;54700;51.796;10.956;2022-08-19T00:35:43;36.85;30.40;54.61;;
67900;Laerm;54700;51.796;10.956;2022-08-19T00:38:10;35.91;28.95;47.72;;
67900;Laerm;54700;51.796;10.956;2022-08-19T00:40:37;47.74;29.40;64.57;;
67900;Laerm;54700;51.796;10.956;2022-08-19T00:43:09;35.09;29.82;46.75;;
67900;Laerm;54700;51.796;10.956;2022-08-19T00:45:36;47.05;29.32;63.00;;
67900;Laerm;54700;51.796;10.956;2022-08-19T00:48:03;49.20;30.08;65.07;;
67900;Laerm;54700;51.796;10.956;2022-08-19T00:50:31;36.30;29.04;47.74;;
67900;Laerm;54700;51.796;10.956;2022-08-19T00:52:58;38.37;30.03;48.29;;
67900;Laerm;54700;51.796;10.956;2022-08-19T00:55:26;51.27;30.88;67.19;;
67900;Laerm;54700;51.796;10.956;2022-08-19T00:57:56;36.06;28.97;48.15;;
67900;Laerm;54700;51.796;10.956;2022-08-19T01:00:27;36.70;29.67;46.07;;
67900;Laerm;54700;51.796;10.956;2022-08-19T01:02:55;35.76;28.82;49.71;;
67900;Laerm;54700;51.796;10.956;2022-08-19T01:05:24;33.56;28.63;46.12;;
67900;Laerm;54700;51.796;10.956;2022-08-19T01:07:53;34.58;29.15;50.96;;
67900;Laerm;54700;51.796;10.956;2022-08-19T01:10:23;34.82;30.41;48.19;;
67900;Laerm;54700;51.796;10.956;2022-08-19T01:12:52;36.54;29.55;50.64;;
67900;Laerm;54700;51.796;10.956;2022-08-19T01:15:22;34.23;28.84;42.89;;
67900;Laerm;54700;51.796;10.956;2022-08-19T01:17:52;32.17;28.85;38.62;;
67900;Laerm;54700;51.796;10.956;2022-08-19T01:20:22;52.35;28.47;68.81;;
67900;Laerm;54700;51.796;10.956;2022-08-19T01:22:52;55.82;29.00;71.18;;
67900;Laerm;54700;51.796;10.956;2022-08-19T01:25:22;32.33;28.49;43.32;;
67900;Laerm;54700;51.796;10.956;2022-08-19T01:27:51;50.47;29.70;66.30;;
67900;Laerm;54700;51.796;10.956;2022-08-19T01:30:20;34.26;28.90;43.00;;
67900;Laerm;54700;51.796;10.956;2022-08-19T01:32:48;37.66;31.01;49.56;;
67900;Laerm;54700;51.796;10.956;2022-08-19T01:35:15;33.69;29.18;47.09;;
67900;Laerm;54700;51.796;10.956;2022-08-19T01:37:45;37.06;30.32;45.55;;
67900;Laerm;54700;51.796;10.956;2022-08-19T01:40:14;36.38;29.70;46.25;;
67900;Laerm;54700;51.796;10.956;2022-08-19T01:42:41;33.41;29.34;40.67;;
67900;Laerm;54700;51.796;10.956;2022-08-19T01:45:09;33.96;29.27;42.71;;
67900;Laerm;54700;51.796;10.956;2022-08-19T01:47:36;33.92;28.94;41.81;;
67900;Laerm;54700;51.796;10.956;2022-08-19T01:50:05;49.59;29.83;64.70;;
67900;Laerm;54700;51.796;10.956;2022-08-19T01:52:34;47.06;30.16;62.48;;
67900;Laerm;54700;51.796;10.956;2022-08-19T01:55:01;33.40;29.24;42.16;;
67900;Laerm;54700;51.796;10.956;2022-08-19T01:57:29;33.23;29.50;40.57;;
67900;Laerm;54700;51.796;10.956;2022-08-19T01:59:57;37.08;29.74;47.12;;
67900;Laerm;54700;51.796;10.956;2022-08-19T02:02:25;36.20;31.26;50.60;;
67900;Laerm;54700;51.796;10.956;2022-08-19T02:04:51;35.52;29.67;43.37;;
67900;Laerm;54700;51.796;10.956;2022-08-19T02:07:19;36.10;31.04;43.02;;
67900;Laerm;54700;51.796;10.956;2022-08-19T02:09:45;34.92;29.53;45.86;;
67900;Laerm;54700;51.796;10.956;2022-08-19T02:12:12;31.91;28.21;41.84;;
67900;Laerm;54700;51.796;10.956;2022-08-19T02:14:40;48.33;28.99;64.07;;
67900;Laerm;54700;51.796;10.956;2022-08-19T02:17:07;51.67;30.21;67.37;;
67900;Laerm;54700;51.796;10.956;2022-08-19T02:19:34;51.66;30.32;67.87;;
67900;Laerm;54700;51.796;10.956;2022-08-19T02:22:01;53.75;30.10;65.69;;
67900;Laerm;54700;51.796;10.956;2022-08-19T02:24:28;36.86;29.54;51.49;;
67900;Laerm;54700;51.796;10.956;2022-08-19T02:26:55;39.76;31.02;53.49;;
67900;Laerm;54700;51.796;10.956;2022-08-19T02:29:22;56.41;31.87;70.98;;
67900;Laerm;54700;51.796;10.956;2022-08-19T02:31:50;44.00;31.84;60.65;;
67900;Laerm;54700;51.796;10.956;2022-08-19T02:34:17;49.67;30.40;65.32;;
67900;Laerm;54700;51.796;10.956;2022-08-19T02:36:44;36.03;31.80;50.37;;
67900;Laerm;54700;51.796;10.956;2022-08-19T02:39:11;56.17;32.37;80.88;;
67900;Laerm;54700;51.796;10.956;2022-08-19T02:41:36;56.48;32.08;70.00;;
67900;Laerm;54700;51.796;10.956;2022-08-19T02:44:03;48.34;32.12;65.57;;
67900;Laerm;54700;51.796;10.956;2022-08-19T02:46:31;60.79;32.00;76.62;;
67900;Laerm;54700;51.796;10.956;2022-08-19T02:49:04;51.79;31.06;65.47;;
67900;Laerm;54700;51.796;10.956;2022-08-19T02:51:33;55.87;32.97;69.14;;
67900;Laerm;54700;51.796;10.956;2022-08-19T02:54:01;35.92;31.64;43.84;;
67900;Laerm;54700;51.796;10.956;2022-08-19T02:56:29;48.07;30.62;64.40;;
67900;Laerm;54700;51.796;10.956;2022-08-19T02:58:57;52.41;32.75;66.79;;
67900;Laerm;54700;51.796;10.956;2022-08-19T03:01:25;53.18;30.57;69.53;;
67900;Laerm;54700;51.796;10.956;2022-08-19T03:03:53;53.90;32.40;68.75;;
67900;Laerm;54700;51.796;10.956;2022-08-19T03:06:22;55.26;31.33;67.88;;
67900;Laerm;54700;51.796;10.956;2022-08-19T03:08:50;56.02;32.62;66.81;;
67900;Laerm;54700;51.796;10.956;2022-08-19T03:11:19;54.29;33.52;67.21;;
67900;Laerm;54700;51.796;10.956;2022-08-19T03:13:46;52.23;32.16;67.40;;
67900;Laerm;54700;51.796;10.956;2022-08-19T03:16:15;49.57;31.66;67.36;;
67900;Laerm;54700;51.796;10.956;2022-08-19T03:18:42;58.38;33.03;69.08;;
67900;Laerm;54700;51.796;10.956;2022-08-19T03:21:09;55.40;32.83;69.32;;
67900;Laerm;54700;51.796;10.956;2022-08-19T03:23:42;59.83;35.10;71.02;;
67900;Laerm;54700;51.796;10.956;2022-08-19T03:26:09;56.58;35.45;67.52;;
67900;Laerm;54700;51.796;10.956;2022-08-19T03:28:36;58.01;37.08;70.06;;
67900;Laerm;54700;51.796;10.956;2022-08-19T03:31:06;51.90;33.59;65.60;;
67900;Laerm;54700;51.796;10.956;2022-08-19T03:33:34;56.69;34.39;72.70;;
67900;Laerm;54700;51.796;10.956;2022-08-19T03:36:04;55.43;33.60;67.91;;
67900;Laerm;54700;51.796;10.956;2022-08-19T03:38:33;53.96;33.69;68.36;;
67900;Laerm;54700;51.796;10.956;2022-08-19T03:41:05;56.67;36.47;69.30;;
67900;Laerm;54700;51.796;10.956;2022-08-19T03:43:34;58.64;33.98;79.90;;
67900;Laerm;54700;51.796;10.956;2022-08-19T03:46:03;58.58;34.79;71.18;;
67900;Laerm;54700;51.796;10.956;2022-08-19T03:48:32;60.35;35.20;70.25;;
67900;Laerm;54700;51.796;10.956;2022-08-19T03:50:59;60.35;37.82;69.36;;
67900;Laerm;54700;51.796;10.956;2022-08-19T03:53:26;62.84;38.25;74.34;;
67900;Laerm;54700;51.796;10.956;2022-08-19T03:55:54;55.74;35.87;67.59;;
67900;Laerm;54700;51.796;10.956;2022-08-19T03:58:22;57.64;37.95;68.93;;
67900;Laerm;54700;51.796;10.956;2022-08-19T04:00:49;59.94;38.48;73.25;;
67900;Laerm;54700;51.796;10.956;2022-08-19T04:03:16;57.98;37.33;70.08;;
67900;Laerm;54700;51.796;10.956;2022-08-19T04:05:44;59.05;35.16;69.78;;
67900;Laerm;54700;51.796;10.956;2022-08-19T04:08:12;60.55;37.49;70.46;;
67900;Laerm;54700;51.796;10.956;2022-08-19T04:10:40;54.80;37.45;67.56;;
67900;Laerm;54700;51.796;10.956;2022-08-19T04:13:07;58.39;36.53;70.46;;
67900;Laerm;54700;51.796;10.956;2022-08-19T04:15:39;63.25;41.61;76.77;;
67900;Laerm;54700;51.796;10.956;2022-08-19T04:18:07;56.67;37.23;68.40;;
67900;Laerm;54700;51.796;10.956;2022-08-19T04:20:39;59.23;37.80;72.36;;
67900;Laerm;54700;51.796;10.956;2022-08-19T04:23:07;58.21;35.05;70.70;;
67900;Laerm;54700;51.796;10.956;2022-08-19T04:25:38;57.53;38.58;68.43;;
67900;Laerm;54700;51.796;10.956;2022-08-19T04:28:04;60.24;40.27;69.93;;
67900;Laerm;54700;51.796;10.956;2022-08-19T04:30:39;59.82;38.99;69.96;;
67900;Laerm;54700;51.796;10.956;2022-08-19T04:33:06;59.53;40.21;71.24;;
67900;Laerm;54700;51.796;10.956;2022-08-19T04:35:38;61.49;40.83;73.55;;
67900;Laerm;54700;51.796;10.956;2022-08-19T04:38:06;58.89;38.51;69.73;;
67900;Laerm;54700;51.796;10.956;2022-08-19T04:40:33;61.43;40.92;70.87;;
67900;Laerm;54700;51.796;10.956;2022-08-19T04:43:18;58.95;40.89;69.67;;
67900;Laerm;54700;51.796;10.956;2022-08-19T04:45:46;61.69;43.59;72.24;;
67900;Laerm;54700;51.796;10.956;2022-08-19T04:48:13;61.94;40.03;71.42;;
67900;Laerm;54700;51.796;10.956;2022-08-19T04:50:41;61.63;44.54;72.42;;
67900;Laerm;54700;51.796;10.956;2022-08-19T04:53:09;63.01;43.24;73.25;;
67900;Laerm;54700;51.796;10.956;2022-08-19T04:55:39;63.15;46.30;74.53;;
67900;Laerm;54700;51.796;10.956;2022-08-19T04:58:05;63.21;40.49;75.74;;
67900;Laerm;54700;51.796;10.956;2022-08-19T05:00:32;62.45;41.26;70.58;;
67900;Laerm;54700;51.796;10.956;2022-08-19T05:03:01;60.00;38.54;73.67;;
67900;Laerm;54700;51.796;10.956;2022-08-19T05:05:27;61.48;40.89;70.69;;
67900;Laerm;54700;51.796;10.956;2022-08-19T05:07:54;60.99;40.50;74.40;;
67900;Laerm;54700;51.796;10.956;2022-08-19T05:10:21;60.84;45.06;70.53;;
67900;Laerm;54700;51.796;10.956;2022-08-19T05:12:48;64.84;47.42;75.13;;
67900;Laerm;54700;51.796;10.956;2022-08-19T05:15:15;63.55;46.81;72.93;;
67900;Laerm;54700;51.796;10.956;2022-08-19T05:17:41;61.98;44.50;73.62;;
67900;Laerm;54700;51.796;10.956;2022-08-19T05:20:29;60.78;43.83;69.34;;
67900;Laerm;54700;51.796;10.956;2022-08-19T05:23:14;61.77;43.03;73.86;;
67900;Laerm;54700;51.796;10.956;2022-08-19T05:25:41;60.89;41.52;73.00;;
67900;Laerm;54700;51.796;10.956;2022-08-19T05:28:08;60.77;41.02;70.96;;
67900;Laerm;54700;51.796;10.956;2022-08-19T05:30:35;61.62;39.49;73.30;;
67900;Laerm;54700;51.796;10.956;2022-08-19T05:33:01;60.59;40.08;72.02;;
67900;Laerm;54700;51.796;10.956;2022-08-19T05:35:30;60.51;40.86;69.25;;
67900;Laerm;54700;51.796;10.956;2022-08-19T05:37:57;62.02;41.11;71.38;;
67900;Laerm;54700;51.796;10.956;2022-08-19T05:40:23;61.91;39.94;73.94;;
67900;Laerm;54700;51.796;10.956;2022-08-19T05:42:50;63.97;43.17;74.34;;
67900;Laerm;54700;51.796;10.956;2022-08-19T05:45:18;61.98;42.71;70.43;;
67900;Laerm;54700;51.796;10.956;2022-08-19T05:47:45;60.50;40.72;71.55;;
67900;Laerm;54700;51.796;10.956;2022-08-19T05:50:12;62.03;42.70;70.61;;
67900;Laerm;54700;51.796;10.956;2022-08-19T05:52:40;60.92;41.04;68.30;;
67900;Laerm;54700;51.796;10.956;2022-08-19T05:55:07;60.91;39.37;72.11;;
67900;Laerm;54700;51.796;10.956;2022-08-19T05:57:34;60.63;40.77;72.36;;
67900;Laerm;54700;51.796;10.956;2022-08-19T06:00:00;61.99;39.85;69.53;;
67900;Laerm;54700;51.796;10.956;2022-08-19T06:02:33;61.32;38.45;72.74;;
67900;Laerm;54700;51.796;10.956;2022-08-19T06:05:00;67.33;40.52;82.33;;
67900;Laerm;54700;51.796;10.956;2022-08-19T06:07:28;61.58;42.04;71.48;;
67900;Laerm;54700;51.796;10.956;2022-08-19T06:09:56;60.02;41.30;69.52;;
67900;Laerm;54700;51.796;10.956;2022-08-19T06:12:22;58.86;43.89;76.41;;
67900;Laerm;54700;51.796;10.956;2022-08-19T06:14:55;59.53;41.89;68.17;;
67900;Laerm;54700;51.796;10.956;2022-08-19T06:17:22;62.64;44.08;73.80;;
67900;Laerm;54700;51.796;10.956;2022-08-19T06:19:51;60.91;40.63;72.12;;
67900;Laerm;54700;51.796;10.956;2022-08-19T06:22:18;62.30;44.20;72.46;;
67900;Laerm;54700;51.796;10.956;2022-08-19T06:24:44;62.57;45.16;71.51;;
67900;Laerm;54700;51.796;10.956;2022-08-19T06:27:12;61.19;44.05;74.32;;
67900;Laerm;54700;51.796;10.956;2022-08-19T06:29:40;63.26;43.13;76.45;;
67900;Laerm;54700;51.796;10.956;2022-08-19T06:32:08;58.55;40.21;71.63;;
67900;Laerm;54700;51.796;10.956;2022-08-19T06:34:35;62.70;42.77;73.99;;
67900;Laerm;54700;51.796;10.956;2022-08-19T06:37:02;62.53;43.22;71.32;;
67900;Laerm;54700;51.796;10.956;2022-08-19T06:39:33;61.41;42.61;70.04;;
67900;Laerm;54700;51.796;10.956;2022-08-19T06:42:01;62.77;45.87;78.77;;
67900;Laerm;54700;51.796;10.956;2022-08-19T06:44:33;60.38;46.21;70.08;;
67900;Laerm;54700;51.796;10.956;2022-08-19T06:47:03;64.34;46.66;77.31;;
67900;Laerm;54700;51.796;10.956;2022-08-19T06:49:31;61.44;43.28;70.46;;
67900;Laerm;54700;51.796;10.956;2022-08-19T06:51:57;61.53;45.40;69.89;;
67900;Laerm;54700;51.796;10.956;2022-08-19T06:54:25;60.85;42.94;70.28;;
67900;Laerm;54700;51.796;10.956;2022-08-19T06:56:53;62.26;46.84;71.77;;
67900;Laerm;54700;51.796;10.956;2022-08-19T06:59:22;62.40;45.96;74.60;;
67900;Laerm;54700;51.796;10.956;2022-08-19T07:01:55;62.60;45.45;73.15;;
67900;Laerm;54700;51.796;10.956;2022-08-19T07:04:24;62.20;41.12;76.01;;
67900;Laerm;54700;51.796;10.956;2022-08-19T07:06:56;61.50;43.11;70.87;;
67900;Laerm;54700;51.796;10.956;2022-08-19T07:09:23;60.29;40.41;68.86;;
67900;Laerm;54700;51.796;10.956;2022-08-19T07:11:51;62.59;40.22;73.97;;
67900;Laerm;54700;51.796;10.956;2022-08-19T07:14:21;60.91;47.68;70.05;;
67900;Laerm;54700;51.796;10.956;2022-08-19T07:16:51;64.27;41.81;74.81;;
67900;Laerm;54700;51.796;10.956;2022-08-19T07:19:23;62.94;43.98;76.53;;
67900;Laerm;54700;51.796;10.956;2022-08-19T07:21:51;62.65;44.84;72.70;;
67900;Laerm;54700;51.796;10.956;2022-08-19T07:24:19;63.23;42.98;73.54;;
67900;Laerm;54700;51.796;10.956;2022-08-19T07:26:46;61.80;43.15;71.35;;
67900;Laerm;54700;51.796;10.956;2022-08-19T07:29:13;62.49;47.26;72.18;;
67900;Laerm;54700;51.796;10.956;2022-08-19T07:31:40;60.07;38.81;69.46;;
67900;Laerm;54700;51.796;10.956;2022-08-19T07:34:09;63.85;46.84;74.56;;
67900;Laerm;54700;51.796;10.956;2022-08-19T07:36:39;63.15;41.20;72.13;;
67900;Laerm;54700;51.796;10.956;2022-08-19T07:39:09;63.59;46.59;72.93;;
67900;Laerm;54700;51.796;10.956;2022-08-19T07:41:37;61.14;39.40;71.64;;
67900;Laerm;54700;51.796;10.956;2022-08-19T07:44:05;59.22;42.88;73.01;;
67900;Laerm;54700;51.796;10.956;2022-08-19T07:46:33;61.40;40.77;72.89;;
67900;Laerm;54700;51.796;10.956;2022-08-19T07:49:01;62.18;41.76;70.49;;
67900;Laerm;54700;51.796;10.956;2022-08-19T07:51:28;62.02;42.84;72.27;;
67900;Laerm;54700;51.796;10.956;2022-08-19T07:53:57;63.44;49.00;70.62;;
67900;Laerm;54700;51.796;10.956;2022-08-19T07:56:23;62.88;42.72;71.71;;
67900;Laerm;54700;51.796;10.956;2022-08-19T07:58:51;63.80;43.49;71.04;;
67900;Laerm;54700;51.796;10.956;2022-08-19T08:01:20;62.85;40.12;72.17;;
67900;Laerm;54700;51.796;10.956;2022-08-19T08:03:48;63.01;43.68;70.68;;
67900;Laerm;54700;51.796;10.956;2022-08-19T08:06:35;62.47;44.33;72.54;;
67900;Laerm;54700;51.796;10.956;2022-08-19T08:09:26;62.71;41.22;72.13;;
67900;Laerm;54700;51.796;10.956;2022-08-19T08:11:57;61.84;40.32;70.23;;
67900;Laerm;54700;51.796;10.956;2022-08-19T08:14:28;60.62;41.69;69.85;;
67900;Laerm;54700;51.796;10.956;2022-08-19T08:16:55;64.95;39.55;76.84;;
67900;Laerm;54700;51.796;10.956;2022-08-19T08:19:23;63.59;41.98;73.23;;
67900;Laerm;54700;51.796;10.956;2022-08-19T08:21:51;62.92;44.43;72.05;;
67900;Laerm;54700;51.796;10.956;2022-08-19T08:24:18;60.56;43.49;69.75;;
67900;Laerm;54700;51.796;10.956;2022-08-19T08:26:46;63.92;47.69;74.17;;
67900;Laerm;54700;51.796;10.956;2022-08-19T08:29:14;62.35;45.13;69.81;;
67900;Laerm;54700;51.796;10.956;2022-08-19T08:31:42;62.15;42.94;70.13;;
67900;Laerm;54700;51.796;10.956;2022-08-19T08:34:12;62.38;43.12;72.46;;
67900;Laerm;54700;51.796;10.956;2022-08-19T08:36:40;64.82;48.02;70.98;;
67900;Laerm;54700;51.796;10.956;2022-08-19T08:39:07;63.89;47.30;75.29;;
67900;Laerm;54700;51.796;10.956;2022-08-19T08:41:37;62.88;45.91;70.38;;
67900;Laerm;54700;51.796;10.956;2022-08-19T08:44:13;62.28;39.63;73.15;;
67900;Laerm;54700;51.796;10.956;2022-08-19T08:46:44;63.68;48.90;73.85;;
67900;Laerm;54700;51.796;10.956;2022-08-19T08:49:29;62.84;41.77;72.11;;
67900;Laerm;54700;51.796;10.956;2022-08-19T08:52:02;63.05;42.74;73.49;;
67900;Laerm;54700;51.796;10.956;2022-08-19T08:54:35;62.92;48.06;70.18;;
67900;Laerm;54700;51.796;10.956;2022-08-19T08:57:04;62.38;43.21;70.97;;
67900;Laerm;54700;51.796;10.956;2022-08-19T08:59:38;62.00;43.80;68.69;;
67900;Laerm;54700;51.796;10.956;2022-08-19T09:02:06;63.54;45.35;73.18;;
67900;Laerm;54700;51.796;10.956;2022-08-19T09:04:34;64.36;46.64;76.78;;
67900;Laerm;54700;51.796;10.956;2022-08-19T09:07:13;60.31;42.94;68.24;;
67900;Laerm;54700;51.796;10.956;2022-08-19T09:09:46;63.96;47.11;77.21;;
67900;Laerm;54700;51.796;10.956;2022-08-19T09:12:24;62.11;44.76;71.69;;
67900;Laerm;54700;51.796;10.956;2022-08-19T09:14:57;62.66;43.96;71.76;;
67900;Laerm;54700;51.796;10.956;2022-08-19T09:17:28;63.85;49.80;72.41;;
67900;Laerm;54700;51.796;10.956;2022-08-19T09:20:01;64.04;44.87;74.39;;
67900;Laerm;54700;51.796;10.956;2022-08-19T09:22:32;60.74;43.49;70.09;;
67900;Laerm;54700;51.796;10.956;2022-08-19T09:24:59;62.28;45.95;73.39;;
67900;Laerm;54700;51.796;10.956;2022-08-19T09:27:27;62.67;48.19;69.87;;
67900;Laerm;54700;51.796;10.956;2022-08-19T09:29:55;62.69;43.28;73.16;;
67900;Laerm;54700;51.796;10.956;2022-08-19T09:32:22;62.77;52.04;71.74;;
67900;Laerm;54700;51.796;10.956;2022-08-19T09:34:49;63.43;43.21;73.91;;
67900;Laerm;54700;51.796;10.956;2022-08-19T09:37:20;64.44;41.50;77.32;;
67900;Laerm;54700;51.796;10.956;2022-08-19T09:39:46;62.66;50.81;71.50;;
67900;Laerm;54700;51.796;10.956;2022-08-19T09:42:13;64.21;47.89;72.43;;
67900;Laerm;54700;51.796;10.956;2022-08-19T09:44:40;64.18;45.50;72.62;;
67900;Laerm;54700;51.796;10.956;2022-08-19T09:47:10;62.81;47.44;73.04;;
67900;Laerm;54700;51.796;10.956;2022-08-19T09:49:38;62.71;44.92;72.94;;
67900;Laerm;54700;51.796;10.956;2022-08-19T09:52:08;61.51;44.07;68.87;;
67900;Laerm;54700;51.796;10.956;2022-08-19T09:54:36;63.24;48.95;73.02;;
67900;Laerm;54700;51.796;10.956;2022-08-19T09:57:03;66.50;42.53;85.31;;
67900;Laerm;54700;51.796;10.956;2022-08-19T09:59:30;76.60;47.06;98.68;;
67900;Laerm;54700;51.796;10.956;2022-08-19T10:01:57;63.15;45.81;72.43;;
67900;Laerm;54700;51.796;10.956;2022-08-19T10:04:25;65.15;47.22;74.50;;
67900;Laerm;54700;51.796;10.956;2022-08-19T10:07:12;64.66;42.23;75.60;;
67900;Laerm;54700;51.796;10.956;2022-08-19T10:09:39;65.31;46.24;77.78;;
67900;Laerm;54700;51.796;10.956;2022-08-19T10:12:07;63.26;40.35;72.11;;
67900;Laerm;54700;51.796;10.956;2022-08-19T10:14:34;61.99;48.90;71.39;;
67900;Laerm;54700;51.796;10.956;2022-08-19T10:17:02;64.08;52.52;70.92;;
67900;Laerm;54700;51.796;10.956;2022-08-19T10:19:30;62.84;45.82;75.38;;
67900;Laerm;54700;51.796;10.956;2022-08-19T10:22:03;63.68;47.38;71.96;;
67900;Laerm;54700;51.796;10.956;2022-08-19T10:24:31;59.45;41.45;69.48;;
67900;Laerm;54700;51.796;10.956;2022-08-19T10:27:00;60.39;41.49;70.57;;
67900;Laerm;54700;51.796;10.956;2022-08-19T10:29:29;65.80;44.89;73.92;;
67900;Laerm;54700;51.796;10.956;2022-08-19T10:31:57;63.29;41.32;73.35;;
67900;Laerm;54700;51.796;10.956;2022-08-19T10:34:26;63.92;39.56;74.85;;
67900;Laerm;54700;51.796;10.956;2022-08-19T10:36:56;62.06;40.15;72.43;;
67900;Laerm;54700;51.796;10.956;2022-08-19T10:39:23;61.64;45.46;69.72;;
67900;Laerm;54700;51.796;10.956;2022-08-19T10:41:49;61.26;45.00;69.96;;
67900;Laerm;54700;51.796;10.956;2022-08-19T10:44:16;61.52;42.82;69.70;;
67900;Laerm;54700;51.796;10.956;2022-08-19T10:46:44;62.01;39.88;70.72;;
67900;Laerm;54700;51.796;10.956;2022-08-19T10:49:12;61.61;41.62;69.42;;
67900;Laerm;54700;51.796;10.956;2022-08-19T10:51:39;61.10;43.55;70.67;;
67900;Laerm;54700;51.796;10.956;2022-08-19T10:54:26;62.84;42.23;72.49;;
67900;Laerm;54700;51.796;10.956;2022-08-19T10:57:14;61.58;38.89;70.65;;
67900;Laerm;54700;51.796;10.956;2022-08-19T10:59:40;60.87;40.19;70.48;;
67900;Laerm;54700;51.796;10.956;2022-08-19T11:02:08;63.23;42.57;72.55;;
67900;Laerm;54700;51.796;10.956;2022-08-19T11:04:36;64.11;43.35;71.53;;
67900;Laerm;54700;51.796;10.956;2022-08-19T11:07:04;64.11;50.31;70.39;;
67900;Laerm;54700;51.796;10.956;2022-08-19T11:09:37;62.91;46.97;71.16;;
67900;Laerm;54700;51.796;10.956;2022-08-19T11:12:04;60.58;40.77;70.32;;
67900;Laerm;54700;51.796;10.956;2022-08-19T11:14:31;64.02;47.13;73.86;;
67900;Laerm;54700;51.796;10.956;2022-08-19T11:17:01;63.55;45.43;72.07;;
67900;Laerm;54700;51.796;10.956;2022-08-19T11:19:28;62.53;44.86;72.21;;
67900;Laerm;54700;51.796;10.956;2022-08-19T11:21:55;62.61;39.82;71.34;;
67900;Laerm;54700;51.796;10.956;2022-08-19T11:24:24;65.03;41.48;83.35;;
67900;Laerm;54700;51.796;10.956;2022-08-19T11:26:55;63.25;45.59;73.91;;
67900;Laerm;54700;51.796;10.956;2022-08-19T11:29:27;61.20;39.70;75.67;;
67900;Laerm;54700;51.796;10.956;2022-08-19T11:31:54;63.50;39.54;71.79;;
67900;Laerm;54700;51.796;10.956;2022-08-19T11:34:22;65.20;45.74;76.97;;
67900;Laerm;54700;51.796;10.956;2022-08-19T11:36:50;62.61;43.53;72.96;;
67900;Laerm;54700;51.796;10.956;2022-08-19T11:39:19;63.33;48.25;75.42;;
67900;Laerm;54700;51.796;10.956;2022-08-19T11:41:46;62.71;43.98;71.26;;
67900;Laerm;54700;51.796;10.956;2022-08-19T11:44:14;63.08;37.91;72.56;;
67900;Laerm;54700;51.796;10.956;2022-08-19T11:46:42;61.74;38.35;70.24;;
67900;Laerm;54700;51.796;10.956;2022-08-19T11:49:12;61.47;42.63;72.25;;
67900;Laerm;54700;51.796;10.956;2022-08-19T11:51:40;63.58;40.71;75.48;;
67900;Laerm;54700;51.796;10.956;2022-08-19T11:54:08;63.45;40.03;75.43;;
67900;Laerm;54700;51.796;10.956;2022-08-19T11:56:37;61.43;39.63;69.71;;
67900;Laerm;54700;51.796;10.956;2022-08-19T11:59:04;62.88;41.20;72.73;;
67900;Laerm;54700;51.796;10.956;2022-08-19T12:01:32;61.31;38.95;72.25;;
67900;Laerm;54700;51.796;10.956;2022-08-19T12:03:59;63.40;43.64;75.72;;
67900;Laerm;54700;51.796;10.956;2022-08-19T12:06:27;62.30;38.29;71.62;;
67900;Laerm;54700;51.796;10.956;2022-08-19T12:08:55;59.90;40.03;71.12;;
67900;Laerm;54700;51.796;10.956;2022-08-19T12:11:23;61.41;41.29;69.66;;
67900;Laerm;54700;51.796;10.956;2022-08-19T12:13:50;61.62;38.42;75.37;;
67900;Laerm;54700;51.796;10.956;2022-08-19T12:16:19;63.51;39.80;75.89;;
67900;Laerm;54700;51.796;10.956;2022-08-19T12:18:47;63.36;38.80;84.56;;
67900;Laerm;54700;51.796;10.956;2022-08-19T12:21:18;60.38;37.56;68.72;;
67900;Laerm;54700;51.796;10.956;2022-08-19T12:23:47;62.21;46.71;73.30;;
67900;Laerm;54700;51.796;10.956;2022-08-19T12:26:14;61.49;37.52;70.51;;
67900;Laerm;54700;51.796;10.956;2022-08-19T12:28:41;62.22;43.49;69.47;;
67900;Laerm;54700;51.796;10.956;2022-08-19T12:31:08;63.44;44.77;77.60;;
67900;Laerm;54700;51.796;10.956;2022-08-19T12:33:37;63.28;42.69;73.75;;
67900;Laerm;54700;51.796;10.956;2022-08-19T12:36:07;60.74;40.88;72.66;;
67900;Laerm;54700;51.796;10.956;2022-08-19T12:38:35;62.00;47.83;69.53;;
67900;Laerm;54700;51.796;10.956;2022-08-19T12:41:03;60.75;38.60;70.53;;
67900;Laerm;54700;51.796;10.956;2022-08-19T12:43:31;65.20;43.11;80.26;;
67900;Laerm;54700;51.796;10.956;2022-08-19T12:45:57;61.75;47.44;70.56;;
67900;Laerm;54700;51.796;10.956;2022-08-19T12:48:24;63.13;43.03;73.31;;
67900;Laerm;54700;51.796;10.956;2022-08-19T12:50:51;62.94;40.14;75.86;;
67900;Laerm;54700;51.796;10.956;2022-08-19T12:53:19;63.59;46.69;71.66;;
67900;Laerm;54700;51.796;10.956;2022-08-19T12:55:46;61.93;44.49;69.53;;
67900;Laerm;54700;51.796;10.956;2022-08-19T12:58:13;61.52;39.05;72.20;;
67900;Laerm;54700;51.796;10.956;2022-08-19T13:00:39;64.63;47.62;73.53;;
67900;Laerm;54700;51.796;10.956;2022-08-19T13:03:07;63.00;39.99;71.24;;
67900;Laerm;54700;51.796;10.956;2022-08-19T13:05:34;61.51;41.49;70.47;;
67900;Laerm;54700;51.796;10.956;2022-08-19T13:08:00;61.94;42.26;74.83;;
67900;Laerm;54700;51.796;10.956;2022-08-19T13:10:33;66.04;41.28;83.10;;
67900;Laerm;54700;51.796;10.956;2022-08-19T13:13:03;62.86;39.66;71.40;;
67900;Laerm;54700;51.796;10.956;2022-08-19T13:15:33;63.79;52.74;70.72;;
67900;Laerm;54700;51.796;10.956;2022-08-19T13:18:00;63.13;42.74;72.42;;
67900;Laerm;54700;51.796;10.956;2022-08-19T13:20:27;63.86;40.01;72.34;;
67900;Laerm;54700;51.796;10.956;2022-08-19T13:22:56;61.15;39.65;70.45;;
67900;Laerm;54700;51.796;10.956;2022-08-19T13:25:23;63.16;44.00;70.15;;
67900;Laerm;54700;51.796;10.956;2022-08-19T13:27:52;62.91;47.55;80.66;;
67900;Laerm;54700;51.796;10.956;2022-08-19T13:30:21;62.87;44.20;73.32;;
67900;Laerm;54700;51.796;10.956;2022-08-19T13:33:06;61.72;41.10;72.11;;
67900;Laerm;54700;51.796;10.956;2022-08-19T13:35:44;61.63;39.43;69.97;;
67900;Laerm;54700;51.796;10.956;2022-08-19T13:38:12;61.72;44.86;70.33;;
67900;Laerm;54700;51.796;10.956;2022-08-19T13:40:41;62.94;40.48;74.09;;